sensor_id;sensor_type;location;lat;lon;timestamp;P1;durP1;ratioP1;P2;durP2;ratioP2
52948;SDS011;38812;50.942;3.644;2023-04-28T00:01:14;29.45;;;20.15;;
52948;SDS011;38812;50.942;3.644;2023-04-28T00:03:39;42.25;;;22.58;;
52948;SDS011;38812;50.942;3.644;2023-04-28T00:06:05;36.78;;;22.25;;
52948;SDS011;38812;50.942;3.644;2023-04-28T00:08:30;35.75;;;21.27;;
52948;SDS011;38812;50.942;3.644;2023-04-28T00:10:56;35.53;;;20.63;;
52948;SDS011;38812;50.942;3.644;2023-04-28T00:13:21;36.70;;;22.38;;
52948;SDS011;38812;50.942;3.644;2023-04-28T00:15:48;34.47;;;20.98;;
52948;SDS011;38812;50.942;3.644;2023-04-28T00:18:14;35.22;;;20.95;;
52948;SDS011;38812;50.942;3.644;2023-04-28T00:20:39;36.25;;;21.75;;
52948;SDS011;38812;50.942;3.644;2023-04-28T00:23:04;34.97;;;23.48;;
52948;SDS011;38812;50.942;3.644;2023-04-28T00:25:30;41.22;;;22.40;;
52948;SDS011;38812;50.942;3.644;2023-04-28T00:27:55;43.17;;;22.02;;
52948;SDS011;38812;50.942;3.644;2023-04-28T00:30:21;40.85;;;22.50;;
52948;SDS011;38812;50.942;3.644;2023-04-28T00:32:46;37.15;;;22.05;;
52948;SDS011;38812;50.942;3.644;2023-04-28T00:35:12;39.63;;;21.73;;
52948;SDS011;38812;50.942;3.644;2023-04-28T00:37:38;36.95;;;23.40;;
52948;SDS011;38812;50.942;3.644;2023-04-28T00:40:03;33.28;;;21.67;;
52948;SDS011;38812;50.942;3.644;2023-04-28T00:42:29;39.17;;;23.52;;
52948;SDS011;38812;50.942;3.644;2023-04-28T00:44:55;34.40;;;23.33;;
52948;SDS011;38812;50.942;3.644;2023-04-28T00:47:21;31.25;;;21.45;;
52948;SDS011;38812;50.942;3.644;2023-04-28T00:49:47;37.40;;;23.05;;
52948;SDS011;38812;50.942;3.644;2023-04-28T00:52:14;36.97;;;22.42;;
52948;SDS011;38812;50.942;3.644;2023-04-28T00:54:39;38.58;;;23.88;;
52948;SDS011;38812;50.942;3.644;2023-04-28T00:57:05;40.38;;;24.17;;
52948;SDS011;38812;50.942;3.644;2023-04-28T00:59:32;38.90;;;23.92;;
52948;SDS011;38812;50.942;3.644;2023-04-28T01:01:58;42.88;;;24.63;;
52948;SDS011;38812;50.942;3.644;2023-04-28T01:04:24;40.38;;;24.23;;
52948;SDS011;38812;50.942;3.644;2023-04-28T01:06:53;45.50;;;25.98;;
52948;SDS011;38812;50.942;3.644;2023-04-28T01:09:20;37.88;;;23.92;;
52948;SDS011;38812;50.942;3.644;2023-04-28T01:11:45;41.60;;;24.77;;
52948;SDS011;38812;50.942;3.644;2023-04-28T01:14:11;40.10;;;25.55;;
52948;SDS011;38812;50.942;3.644;2023-04-28T01:16:36;46.83;;;27.40;;
52948;SDS011;38812;50.942;3.644;2023-04-28T01:19:02;42.42;;;25.30;;
52948;SDS011;38812;50.942;3.644;2023-04-28T01:21:31;45.28;;;26.20;;
52948;SDS011;38812;50.942;3.644;2023-04-28T01:23:58;52.60;;;27.13;;
52948;SDS011;38812;50.942;3.644;2023-04-28T01:26:23;46.65;;;27.90;;
52948;SDS011;38812;50.942;3.644;2023-04-28T01:28:49;48.85;;;29.48;;
52948;SDS011;38812;50.942;3.644;2023-04-28T01:31:15;44.92;;;26.95;;
52948;SDS011;38812;50.942;3.644;2023-04-28T01:33:40;49.17;;;29.10;;
52948;SDS011;38812;50.942;3.644;2023-04-28T01:36:06;47.03;;;26.83;;
52948;SDS011;38812;50.942;3.644;2023-04-28T01:38:31;47.70;;;28.05;;
52948;SDS011;38812;50.942;3.644;2023-04-28T01:40:57;46.88;;;27.55;;
52948;SDS011;38812;50.942;3.644;2023-04-28T01:43:23;50.80;;;28.50;;
52948;SDS011;38812;50.942;3.644;2023-04-28T01:45:48;49.35;;;29.92;;
52948;SDS011;38812;50.942;3.644;2023-04-28T01:48:14;48.42;;;27.65;;
52948;SDS011;38812;50.942;3.644;2023-04-28T01:50:39;55.85;;;28.75;;
52948;SDS011;38812;50.942;3.644;2023-04-28T01:53:05;57.55;;;28.48;;
52948;SDS011;38812;50.942;3.644;2023-04-28T01:55:30;47.33;;;28.65;;
52948;SDS011;38812;50.942;3.644;2023-04-28T01:57:55;47.58;;;28.80;;
52948;SDS011;38812;50.942;3.644;2023-04-28T02:00:22;45.80;;;28.35;;
52948;SDS011;38812;50.942;3.644;2023-04-28T02:02:47;44.17;;;28.63;;
52948;SDS011;38812;50.942;3.644;2023-04-28T02:05:13;46.55;;;28.08;;
52948;SDS011;38812;50.942;3.644;2023-04-28T02:07:38;56.35;;;28.70;;
52948;SDS011;38812;50.942;3.644;2023-04-28T02:10:04;50.33;;;28.92;;
52948;SDS011;38812;50.942;3.644;2023-04-28T02:12:29;48.95;;;30.17;;
52948;SDS011;38812;50.942;3.644;2023-04-28T02:14:55;44.78;;;27.77;;
52948;SDS011;38812;50.942;3.644;2023-04-28T02:17:20;40.45;;;26.50;;
52948;SDS011;38812;50.942;3.644;2023-04-28T02:19:46;47.97;;;28.42;;
52948;SDS011;38812;50.942;3.644;2023-04-28T02:22:11;43.40;;;27.40;;
52948;SDS011;38812;50.942;3.644;2023-04-28T02:24:36;51.40;;;29.67;;
52948;SDS011;38812;50.942;3.644;2023-04-28T02:27:03;43.28;;;28.08;;
52948;SDS011;38812;50.942;3.644;2023-04-28T02:29:29;46.95;;;26.73;;
52948;SDS011;38812;50.942;3.644;2023-04-28T02:31:55;43.03;;;26.80;;
52948;SDS011;38812;50.942;3.644;2023-04-28T02:34:21;51.60;;;27.52;;
52948;SDS011;38812;50.942;3.644;2023-04-28T02:36:46;46.33;;;29.27;;
52948;SDS011;38812;50.942;3.644;2023-04-28T02:39:12;39.83;;;26.25;;
52948;SDS011;38812;50.942;3.644;2023-04-28T02:41:38;39.15;;;26.45;;
52948;SDS011;38812;50.942;3.644;2023-04-28T02:44:03;42.50;;;26.73;;
52948;SDS011;38812;50.942;3.644;2023-04-28T02:46:28;46.03;;;27.52;;
52948;SDS011;38812;50.942;3.644;2023-04-28T02:48:54;41.80;;;26.13;;
52948;SDS011;38812;50.942;3.644;2023-04-28T02:51:20;40.78;;;25.30;;
52948;SDS011;38812;50.942;3.644;2023-04-28T02:53:45;45.58;;;26.65;;
52948;SDS011;38812;50.942;3.644;2023-04-28T02:56:11;42.65;;;25.20;;
52948;SDS011;38812;50.942;3.644;2023-04-28T02:58:36;37.83;;;25.83;;
52948;SDS011;38812;50.942;3.644;2023-04-28T03:01:01;42.80;;;24.13;;
52948;SDS011;38812;50.942;3.644;2023-04-28T03:03:27;38.45;;;26.52;;
52948;SDS011;38812;50.942;3.644;2023-04-28T03:05:52;37.95;;;24.85;;
52948;SDS011;38812;50.942;3.644;2023-04-28T03:08:18;44.05;;;25.73;;
52948;SDS011;38812;50.942;3.644;2023-04-28T03:10:44;47.78;;;26.13;;
52948;SDS011;38812;50.942;3.644;2023-04-28T03:13:10;44.00;;;26.95;;
52948;SDS011;38812;50.942;3.644;2023-04-28T03:15:35;42.90;;;25.83;;
52948;SDS011;38812;50.942;3.644;2023-04-28T03:18:01;45.22;;;25.88;;
52948;SDS011;38812;50.942;3.644;2023-04-28T03:20:26;43.80;;;26.27;;
52948;SDS011;38812;50.942;3.644;2023-04-28T03:22:52;41.97;;;26.92;;
52948;SDS011;38812;50.942;3.644;2023-04-28T03:25:17;48.42;;;27.65;;
52948;SDS011;38812;50.942;3.644;2023-04-28T03:27:43;45.30;;;27.50;;
52948;SDS011;38812;50.942;3.644;2023-04-28T03:30:08;39.03;;;26.38;;
52948;SDS011;38812;50.942;3.644;2023-04-28T03:32:34;45.50;;;26.15;;
52948;SDS011;38812;50.942;3.644;2023-04-28T03:35:00;44.25;;;26.65;;
52948;SDS011;38812;50.942;3.644;2023-04-28T03:37:25;45.22;;;26.30;;
52948;SDS011;38812;50.942;3.644;2023-04-28T03:39:51;44.17;;;27.13;;
52948;SDS011;38812;50.942;3.644;2023-04-28T03:42:16;43.40;;;27.17;;
52948;SDS011;38812;50.942;3.644;2023-04-28T03:44:42;42.55;;;26.33;;
52948;SDS011;38812;50.942;3.644;2023-04-28T03:47:07;46.35;;;26.95;;
52948;SDS011;38812;50.942;3.644;2023-04-28T03:49:32;41.60;;;26.70;;
52948;SDS011;38812;50.942;3.644;2023-04-28T03:51:58;41.30;;;26.77;;
52948;SDS011;38812;50.942;3.644;2023-04-28T03:54:23;39.00;;;26.10;;
52948;SDS011;38812;50.942;3.644;2023-04-28T03:56:49;39.30;;;25.52;;
52948;SDS011;38812;50.942;3.644;2023-04-28T03:59:14;42.25;;;25.40;;
52948;SDS011;38812;50.942;3.644;2023-04-28T04:01:39;38.97;;;25.77;;
52948;SDS011;38812;50.942;3.644;2023-04-28T04:04:05;40.83;;;26.45;;
52948;SDS011;38812;50.942;3.644;2023-04-28T04:06:30;41.58;;;27.13;;
52948;SDS011;38812;50.942;3.644;2023-04-28T04:08:56;38.40;;;24.23;;
52948;SDS011;38812;50.942;3.644;2023-04-28T04:11:22;41.20;;;26.17;;
52948;SDS011;38812;50.942;3.644;2023-04-28T04:13:47;41.78;;;25.48;;
52948;SDS011;38812;50.942;3.644;2023-04-28T04:16:12;44.20;;;25.80;;
52948;SDS011;38812;50.942;3.644;2023-04-28T04:18:40;38.75;;;25.90;;
52948;SDS011;38812;50.942;3.644;2023-04-28T04:21:05;36.90;;;24.55;;
52948;SDS011;38812;50.942;3.644;2023-04-28T04:23:31;33.63;;;23.75;;
52948;SDS011;38812;50.942;3.644;2023-04-28T04:25:56;39.65;;;24.42;;
52948;SDS011;38812;50.942;3.644;2023-04-28T04:28:22;37.40;;;24.98;;
52948;SDS011;38812;50.942;3.644;2023-04-28T04:30:47;38.03;;;23.52;;
52948;SDS011;38812;50.942;3.644;2023-04-28T04:33:12;36.67;;;24.08;;
52948;SDS011;38812;50.942;3.644;2023-04-28T04:35:38;37.60;;;22.02;;
52948;SDS011;38812;50.942;3.644;2023-04-28T04:38:03;35.03;;;21.55;;
52948;SDS011;38812;50.942;3.644;2023-04-28T04:40:28;29.70;;;20.02;;
52948;SDS011;38812;50.942;3.644;2023-04-28T04:42:54;31.88;;;20.88;;
52948;SDS011;38812;50.942;3.644;2023-04-28T04:45:19;27.90;;;18.73;;
52948;SDS011;38812;50.942;3.644;2023-04-28T04:47:45;26.58;;;17.80;;
52948;SDS011;38812;50.942;3.644;2023-04-28T04:50:10;31.42;;;19.35;;
52948;SDS011;38812;50.942;3.644;2023-04-28T04:52:36;33.08;;;19.33;;
52948;SDS011;38812;50.942;3.644;2023-04-28T04:55:03;30.85;;;19.25;;
52948;SDS011;38812;50.942;3.644;2023-04-28T04:57:29;28.08;;;18.48;;
52948;SDS011;38812;50.942;3.644;2023-04-28T04:59:54;25.83;;;16.75;;
52948;SDS011;38812;50.942;3.644;2023-04-28T05:02:20;24.70;;;16.70;;
52948;SDS011;38812;50.942;3.644;2023-04-28T05:04:45;28.73;;;17.35;;
52948;SDS011;38812;50.942;3.644;2023-04-28T05:07:11;28.58;;;17.70;;
52948;SDS011;38812;50.942;3.644;2023-04-28T05:09:36;24.48;;;16.67;;
52948;SDS011;38812;50.942;3.644;2023-04-28T05:12:02;28.35;;;15.95;;
52948;SDS011;38812;50.942;3.644;2023-04-28T05:14:27;24.00;;;15.93;;
52948;SDS011;38812;50.942;3.644;2023-04-28T05:16:53;22.63;;;14.75;;
52948;SDS011;38812;50.942;3.644;2023-04-28T05:19:18;22.75;;;15.43;;
52948;SDS011;38812;50.942;3.644;2023-04-28T05:21:44;20.77;;;14.25;;
52948;SDS011;38812;50.942;3.644;2023-04-28T05:24:11;18.35;;;11.75;;
52948;SDS011;38812;50.942;3.644;2023-04-28T05:26:37;23.40;;;10.98;;
52948;SDS011;38812;50.942;3.644;2023-04-28T05:29:03;15.20;;;10.90;;
52948;SDS011;38812;50.942;3.644;2023-04-28T05:31:28;14.80;;;9.93;;
52948;SDS011;38812;50.942;3.644;2023-04-28T05:33:53;12.75;;;8.70;;
52948;SDS011;38812;50.942;3.644;2023-04-28T05:36:19;9.73;;;8.10;;
52948;SDS011;38812;50.942;3.644;2023-04-28T05:38:44;10.18;;;8.27;;
52948;SDS011;38812;50.942;3.644;2023-04-28T05:41:10;11.80;;;8.10;;
52948;SDS011;38812;50.942;3.644;2023-04-28T05:43:35;10.35;;;8.20;;
52948;SDS011;38812;50.942;3.644;2023-04-28T05:46:01;12.45;;;7.45;;
52948;SDS011;38812;50.942;3.644;2023-04-28T05:48:26;9.32;;;7.88;;
52948;SDS011;38812;50.942;3.644;2023-04-28T05:50:52;9.18;;;8.18;;
52948;SDS011;38812;50.942;3.644;2023-04-28T05:53:17;11.43;;;7.78;;
52948;SDS011;38812;50.942;3.644;2023-04-28T05:55:44;9.43;;;7.47;;
52948;SDS011;38812;50.942;3.644;2023-04-28T05:58:09;9.15;;;7.15;;
52948;SDS011;38812;50.942;3.644;2023-04-28T06:00:34;8.55;;;6.85;;
52948;SDS011;38812;50.942;3.644;2023-04-28T06:03:00;9.65;;;6.90;;
52948;SDS011;38812;50.942;3.644;2023-04-28T06:05:25;8.90;;;6.65;;
52948;SDS011;38812;50.942;3.644;2023-04-28T06:07:51;7.60;;;6.35;;
52948;SDS011;38812;50.942;3.644;2023-04-28T06:10:17;10.07;;;6.10;;
52948;SDS011;38812;50.942;3.644;2023-04-28T06:12:44;8.35;;;6.03;;
52948;SDS011;38812;50.942;3.644;2023-04-28T06:15:10;6.60;;;5.90;;
52948;SDS011;38812;50.942;3.644;2023-04-28T06:17:35;6.20;;;5.60;;
52948;SDS011;38812;50.942;3.644;2023-04-28T06:20:01;8.38;;;5.75;;
52948;SDS011;38812;50.942;3.644;2023-04-28T06:22:27;7.05;;;5.53;;
52948;SDS011;38812;50.942;3.644;2023-04-28T06:24:52;9.30;;;5.32;;
52948;SDS011;38812;50.942;3.644;2023-04-28T06:27:17;7.22;;;5.38;;
52948;SDS011;38812;50.942;3.644;2023-04-28T06:29:43;7.30;;;5.68;;
52948;SDS011;38812;50.942;3.644;2023-04-28T06:32:09;5.80;;;5.22;;
52948;SDS011;38812;50.942;3.644;2023-04-28T06:34:34;10.95;;;6.22;;
52948;SDS011;38812;50.942;3.644;2023-04-28T06:37:01;7.00;;;6.03;;
52948;SDS011;38812;50.942;3.644;2023-04-28T06:39:27;6.03;;;5.53;;
52948;SDS011;38812;50.942;3.644;2023-04-28T06:41:52;4.90;;;4.50;;
52948;SDS011;38812;50.942;3.644;2023-04-28T06:44:17;5.53;;;4.85;;
52948;SDS011;38812;50.942;3.644;2023-04-28T06:46:43;4.93;;;4.28;;
52948;SDS011;38812;50.942;3.644;2023-04-28T06:49:09;5.32;;;3.50;;
52948;SDS011;38812;50.942;3.644;2023-04-28T06:51:34;5.63;;;4.43;;
52948;SDS011;38812;50.942;3.644;2023-04-28T06:54:00;4.20;;;3.45;;
52948;SDS011;38812;50.942;3.644;2023-04-28T06:56:25;4.18;;;3.53;;
52948;SDS011;38812;50.942;3.644;2023-04-28T06:58:51;3.85;;;3.35;;
52948;SDS011;38812;50.942;3.644;2023-04-28T07:01:20;3.72;;;3.17;;
52948;SDS011;38812;50.942;3.644;2023-04-28T07:03:45;4.70;;;2.70;;
52948;SDS011;38812;50.942;3.644;2023-04-28T07:06:11;4.57;;;3.38;;
52948;SDS011;38812;50.942;3.644;2023-04-28T07:08:37;3.58;;;2.90;;
52948;SDS011;38812;50.942;3.644;2023-04-28T07:11:03;4.03;;;3.50;;
52948;SDS011;38812;50.942;3.644;2023-04-28T07:13:29;3.78;;;3.42;;
52948;SDS011;38812;50.942;3.644;2023-04-28T07:15:55;5.68;;;4.13;;
52948;SDS011;38812;50.942;3.644;2023-04-28T07:18:20;4.82;;;4.07;;
52948;SDS011;38812;50.942;3.644;2023-04-28T07:20:46;5.20;;;4.05;;
52948;SDS011;38812;50.942;3.644;2023-04-28T07:23:12;5.45;;;4.10;;
52948;SDS011;38812;50.942;3.644;2023-04-28T07:25:38;6.15;;;3.88;;
52948;SDS011;38812;50.942;3.644;2023-04-28T07:28:04;5.80;;;3.88;;
52948;SDS011;38812;50.942;3.644;2023-04-28T07:30:30;4.00;;;3.47;;
52948;SDS011;38812;50.942;3.644;2023-04-28T07:32:56;4.32;;;3.92;;
52948;SDS011;38812;50.942;3.644;2023-04-28T07:35:22;7.82;;;3.88;;
52948;SDS011;38812;50.942;3.644;2023-04-28T07:37:47;3.35;;;3.05;;
52948;SDS011;38812;50.942;3.644;2023-04-28T07:40:13;3.00;;;2.63;;
52948;SDS011;38812;50.942;3.644;2023-04-28T07:42:38;4.78;;;2.33;;
52948;SDS011;38812;50.942;3.644;2023-04-28T07:45:04;2.47;;;2.28;;
52948;SDS011;38812;50.942;3.644;2023-04-28T07:47:29;2.40;;;2.05;;
52948;SDS011;38812;50.942;3.644;2023-04-28T07:49:55;3.17;;;2.40;;
52948;SDS011;38812;50.942;3.644;2023-04-28T07:52:20;2.65;;;1.70;;
52948;SDS011;38812;50.942;3.644;2023-04-28T07:54:46;2.03;;;1.92;;
52948;SDS011;38812;50.942;3.644;2023-04-28T07:57:11;3.08;;;1.48;;
52948;SDS011;38812;50.942;3.644;2023-04-28T07:59:37;2.45;;;1.60;;
52948;SDS011;38812;50.942;3.644;2023-04-28T08:02:02;1.60;;;1.40;;
52948;SDS011;38812;50.942;3.644;2023-04-28T08:04:28;5.38;;;1.70;;
52948;SDS011;38812;50.942;3.644;2023-04-28T08:06:55;3.03;;;1.20;;
52948;SDS011;38812;50.942;3.644;2023-04-28T08:09:20;1.50;;;1.30;;
52948;SDS011;38812;50.942;3.644;2023-04-28T08:11:46;1.20;;;0.98;;
52948;SDS011;38812;50.942;3.644;2023-04-28T08:14:11;1.15;;;1.05;;
52948;SDS011;38812;50.942;3.644;2023-04-28T08:16:37;1.45;;;1.20;;
52948;SDS011;38812;50.942;3.644;2023-04-28T08:19:05;1.63;;;1.15;;
52948;SDS011;38812;50.942;3.644;2023-04-28T08:21:31;1.75;;;1.20;;
52948;SDS011;38812;50.942;3.644;2023-04-28T08:23:56;1.35;;;1.20;;
52948;SDS011;38812;50.942;3.644;2023-04-28T08:26:22;1.67;;;1.52;;
52948;SDS011;38812;50.942;3.644;2023-04-28T08:28:48;3.97;;;1.50;;
52948;SDS011;38812;50.942;3.644;2023-04-28T08:31:14;3.88;;;2.15;;
52948;SDS011;38812;50.942;3.644;2023-04-28T08:33:40;2.47;;;2.13;;
52948;SDS011;38812;50.942;3.644;2023-04-28T08:36:08;2.95;;;2.33;;
52948;SDS011;38812;50.942;3.644;2023-04-28T08:38:36;3.00;;;2.40;;
52948;SDS011;38812;50.942;3.644;2023-04-28T08:41:02;2.17;;;1.98;;
52948;SDS011;38812;50.942;3.644;2023-04-28T08:43:28;3.28;;;1.50;;
52948;SDS011;38812;50.942;3.644;2023-04-28T08:45:56;2.10;;;1.52;;
52948;SDS011;38812;50.942;3.644;2023-04-28T08:48:22;3.05;;;1.90;;
52948;SDS011;38812;50.942;3.644;2023-04-28T08:50:49;3.15;;;1.77;;
52948;SDS011;38812;50.942;3.644;2023-04-28T08:53:23;2.40;;;2.20;;
52948;SDS011;38812;50.942;3.644;2023-04-28T08:55:54;2.85;;;2.00;;
52948;SDS011;38812;50.942;3.644;2023-04-28T08:58:24;4.10;;;2.03;;
52948;SDS011;38812;50.942;3.644;2023-04-28T09:00:50;3.97;;;1.70;;
52948;SDS011;38812;50.942;3.644;2023-04-28T09:03:17;2.30;;;2.08;;
52948;SDS011;38812;50.942;3.644;2023-04-28T09:05:43;2.90;;;2.05;;
52948;SDS011;38812;50.942;3.644;2023-04-28T09:08:08;2.45;;;1.73;;
52948;SDS011;38812;50.942;3.644;2023-04-28T09:10:36;1.85;;;1.73;;
52948;SDS011;38812;50.942;3.644;2023-04-28T09:13:02;3.78;;;1.50;;
52948;SDS011;38812;50.942;3.644;2023-04-28T09:15:37;2.03;;;1.58;;
52948;SDS011;38812;50.942;3.644;2023-04-28T09:18:06;2.97;;;1.25;;
52948;SDS011;38812;50.942;3.644;2023-04-28T09:20:33;2.35;;;1.38;;
52948;SDS011;38812;50.942;3.644;2023-04-28T09:23:12;1.77;;;0.90;;
52948;SDS011;38812;50.942;3.644;2023-04-28T09:25:39;4.38;;;1.10;;
52948;SDS011;38812;50.942;3.644;2023-04-28T09:28:20;1.15;;;1.05;;
52948;SDS011;38812;50.942;3.644;2023-04-28T09:30:46;1.00;;;0.83;;
52948;SDS011;38812;50.942;3.644;2023-04-28T09:33:12;4.70;;;1.65;;
52948;SDS011;38812;50.942;3.644;2023-04-28T09:35:38;1.40;;;1.20;;
52948;SDS011;38812;50.942;3.644;2023-04-28T09:38:05;2.35;;;1.50;;
52948;SDS011;38812;50.942;3.644;2023-04-28T09:40:30;4.60;;;2.00;;
52948;SDS011;38812;50.942;3.644;2023-04-28T09:42:56;5.72;;;1.95;;
52948;SDS011;38812;50.942;3.644;2023-04-28T09:45:22;5.70;;;1.80;;
52948;SDS011;38812;50.942;3.644;2023-04-28T09:47:48;2.67;;;1.85;;
52948;SDS011;38812;50.942;3.644;2023-04-28T09:50:14;2.80;;;1.70;;
52948;SDS011;38812;50.942;3.644;2023-04-28T09:52:41;4.20;;;2.13;;
52948;SDS011;38812;50.942;3.644;2023-04-28T09:55:20;5.50;;;2.60;;
52948;SDS011;38812;50.942;3.644;2023-04-28T09:57:47;4.07;;;1.92;;
52948;SDS011;38812;50.942;3.644;2023-04-28T10:00:13;2.33;;;1.58;;
52948;SDS011;38812;50.942;3.644;2023-04-28T10:02:40;3.85;;;2.13;;
52948;SDS011;38812;50.942;3.644;2023-04-28T10:05:07;4.53;;;2.05;;
52948;SDS011;38812;50.942;3.644;2023-04-28T10:07:33;2.72;;;2.45;;
52948;SDS011;38812;50.942;3.644;2023-04-28T10:10:00;2.55;;;2.15;;
52948;SDS011;38812;50.942;3.644;2023-04-28T10:12:25;2.38;;;2.05;;
52948;SDS011;38812;50.942;3.644;2023-04-28T10:14:52;2.28;;;1.85;;
52948;SDS011;38812;50.942;3.644;2023-04-28T10:17:21;1.50;;;1.33;;
52948;SDS011;38812;50.942;3.644;2023-04-28T10:19:49;2.50;;;1.38;;
52948;SDS011;38812;50.942;3.644;2023-04-28T10:22:41;1.67;;;1.00;;
52948;SDS011;38812;50.942;3.644;2023-04-28T10:27:37;0.95;;;0.60;;
52948;SDS011;38812;50.942;3.644;2023-04-28T10:30:14;2.13;;;0.63;;
52948;SDS011;38812;50.942;3.644;2023-04-28T10:33:35;0.95;;;0.70;;
52948;SDS011;38812;50.942;3.644;2023-04-28T10:35:39;1.55;;;0.90;;
52948;SDS011;38812;50.942;3.644;2023-04-28T10:38:10;2.72;;;0.50;;
52948;SDS011;38812;50.942;3.644;2023-04-28T10:43:04;1.55;;;0.77;;
52948;SDS011;38812;50.942;3.644;2023-04-28T10:48:20;0.82;;;0.70;;
52948;SDS011;38812;50.942;3.644;2023-04-28T10:56:18;2.05;;;0.90;;
52948;SDS011;38812;50.942;3.644;2023-04-28T11:06:30;0.47;;;0.47;;
52948;SDS011;38812;50.942;3.644;2023-04-28T11:08:59;1.25;;;0.80;;
52948;SDS011;38812;50.942;3.644;2023-04-28T11:19:24;3.33;;;1.15;;
52948;SDS011;38812;50.942;3.644;2023-04-28T11:22:04;1.00;;;0.90;;
52948;SDS011;38812;50.942;3.644;2023-04-28T11:24:36;0.50;;;0.50;;
52948;SDS011;38812;50.942;3.644;2023-04-28T11:27:01;2.65;;;1.58;;
52948;SDS011;38812;50.942;3.644;2023-04-28T11:31:57;2.60;;;0.70;;
52948;SDS011;38812;50.942;3.644;2023-04-28T11:34:23;3.63;;;0.60;;
52948;SDS011;38812;50.942;3.644;2023-04-28T11:36:49;1.75;;;0.70;;
52948;SDS011;38812;50.942;3.644;2023-04-28T11:39:15;1.75;;;1.20;;
52948;SDS011;38812;50.942;3.644;2023-04-28T11:41:41;1.60;;;0.88;;
52948;SDS011;38812;50.942;3.644;2023-04-28T11:44:17;3.05;;;0.90;;
52948;SDS011;38812;50.942;3.644;2023-04-28T11:46:54;1.60;;;0.70;;
52948;SDS011;38812;50.942;3.644;2023-04-28T11:49:24;2.47;;;1.00;;
52948;SDS011;38812;50.942;3.644;2023-04-28T11:51:52;1.70;;;1.20;;
52948;SDS011;38812;50.942;3.644;2023-04-28T11:56:45;1.45;;;1.10;;
52948;SDS011;38812;50.942;3.644;2023-04-28T11:59:11;2.20;;;1.20;;
52948;SDS011;38812;50.942;3.644;2023-04-28T12:01:44;5.22;;;0.90;;
52948;SDS011;38812;50.942;3.644;2023-04-28T12:04:59;1.00;;;0.70;;
52948;SDS011;38812;50.942;3.644;2023-04-28T12:07:08;2.22;;;0.80;;
52948;SDS011;38812;50.942;3.644;2023-04-28T12:09:37;2.92;;;1.30;;
52948;SDS011;38812;50.942;3.644;2023-04-28T12:12:10;1.75;;;1.00;;
52948;SDS011;38812;50.942;3.644;2023-04-28T12:14:53;2.45;;;0.88;;
52948;SDS011;38812;50.942;3.644;2023-04-28T12:17:24;2.80;;;1.00;;
52948;SDS011;38812;50.942;3.644;2023-04-28T12:19:57;8.05;;;1.20;;
52948;SDS011;38812;50.942;3.644;2023-04-28T12:22:24;3.50;;;1.25;;
52948;SDS011;38812;50.942;3.644;2023-04-28T12:25:06;2.53;;;1.33;;
52948;SDS011;38812;50.942;3.644;2023-04-28T12:27:33;1.77;;;1.10;;
52948;SDS011;38812;50.942;3.644;2023-04-28T12:30:00;2.30;;;1.30;;
52948;SDS011;38812;50.942;3.644;2023-04-28T12:32:38;0.85;;;0.85;;
52948;SDS011;38812;50.942;3.644;2023-04-28T12:35:07;1.60;;;1.35;;
52948;SDS011;38812;50.942;3.644;2023-04-28T12:37:33;1.10;;;1.00;;
52948;SDS011;38812;50.942;3.644;2023-04-28T12:39:58;3.83;;;1.30;;
52948;SDS011;38812;50.942;3.644;2023-04-28T12:42:24;2.80;;;1.48;;
52948;SDS011;38812;50.942;3.644;2023-04-28T12:44:49;5.03;;;1.55;;
52948;SDS011;38812;50.942;3.644;2023-04-28T12:47:15;2.63;;;1.67;;
52948;SDS011;38812;50.942;3.644;2023-04-28T12:49:44;2.17;;;1.98;;
52948;SDS011;38812;50.942;3.644;2023-04-28T12:52:10;2.80;;;1.83;;
52948;SDS011;38812;50.942;3.644;2023-04-28T12:54:36;3.80;;;2.03;;
52948;SDS011;38812;50.942;3.644;2023-04-28T12:57:03;2.67;;;2.33;;
52948;SDS011;38812;50.942;3.644;2023-04-28T12:59:29;4.82;;;3.47;;
52948;SDS011;38812;50.942;3.644;2023-04-28T13:01:56;3.90;;;2.30;;
52948;SDS011;38812;50.942;3.644;2023-04-28T13:04:22;6.75;;;3.47;;
52948;SDS011;38812;50.942;3.644;2023-04-28T13:06:47;4.22;;;2.65;;
52948;SDS011;38812;50.942;3.644;2023-04-28T13:09:13;4.68;;;2.83;;
52948;SDS011;38812;50.942;3.644;2023-04-28T13:11:39;3.35;;;2.65;;
52948;SDS011;38812;50.942;3.644;2023-04-28T13:14:05;3.72;;;3.03;;
52948;SDS011;38812;50.942;3.644;2023-04-28T13:16:31;4.13;;;3.00;;
52948;SDS011;38812;50.942;3.644;2023-04-28T13:18:58;4.88;;;3.08;;
52948;SDS011;38812;50.942;3.644;2023-04-28T13:21:23;3.35;;;2.70;;
52948;SDS011;38812;50.942;3.644;2023-04-28T13:23:50;5.22;;;2.90;;
52948;SDS011;38812;50.942;3.644;2023-04-28T13:26:19;3.08;;;2.33;;
52948;SDS011;38812;50.942;3.644;2023-04-28T13:28:46;3.88;;;2.45;;
52948;SDS011;38812;50.942;3.644;2023-04-28T13:31:12;3.97;;;2.03;;
52948;SDS011;38812;50.942;3.644;2023-04-28T13:33:38;4.57;;;1.70;;
52948;SDS011;38812;50.942;3.644;2023-04-28T13:36:04;3.28;;;1.45;;
52948;SDS011;38812;50.942;3.644;2023-04-28T13:38:32;2.30;;;1.40;;
52948;SDS011;38812;50.942;3.644;2023-04-28T13:40:57;7.15;;;1.77;;
52948;SDS011;38812;50.942;3.644;2023-04-28T13:43:22;2.42;;;1.83;;
52948;SDS011;38812;50.942;3.644;2023-04-28T13:45:48;3.20;;;1.65;;
52948;SDS011;38812;50.942;3.644;2023-04-28T13:48:14;1.85;;;1.33;;
52948;SDS011;38812;50.942;3.644;2023-04-28T13:50:40;3.63;;;1.67;;
52948;SDS011;38812;50.942;3.644;2023-04-28T13:53:05;2.67;;;1.73;;
52948;SDS011;38812;50.942;3.644;2023-04-28T13:55:31;3.67;;;1.73;;
52948;SDS011;38812;50.942;3.644;2023-04-28T13:57:56;2.40;;;1.88;;
52948;SDS011;38812;50.942;3.644;2023-04-28T14:00:25;2.25;;;1.48;;
52948;SDS011;38812;50.942;3.644;2023-04-28T14:02:50;1.88;;;1.40;;
52948;SDS011;38812;50.942;3.644;2023-04-28T14:05:16;2.83;;;1.77;;
52948;SDS011;38812;50.942;3.644;2023-04-28T14:07:42;1.75;;;1.15;;
52948;SDS011;38812;50.942;3.644;2023-04-28T14:10:07;1.52;;;1.08;;
52948;SDS011;38812;50.942;3.644;2023-04-28T14:12:33;2.50;;;1.00;;
52948;SDS011;38812;50.942;3.644;2023-04-28T14:14:59;1.63;;;0.95;;
52948;SDS011;38812;50.942;3.644;2023-04-28T14:17:24;3.22;;;1.20;;
52948;SDS011;38812;50.942;3.644;2023-04-28T14:19:50;1.52;;;1.30;;
52948;SDS011;38812;50.942;3.644;2023-04-28T14:22:15;7.30;;;1.40;;
52948;SDS011;38812;50.942;3.644;2023-04-28T14:24:41;4.75;;;1.33;;
52948;SDS011;38812;50.942;3.644;2023-04-28T14:27:07;3.85;;;1.30;;
52948;SDS011;38812;50.942;3.644;2023-04-28T14:29:33;1.95;;;1.20;;
52948;SDS011;38812;50.942;3.644;2023-04-28T14:31:58;2.17;;;1.23;;
52948;SDS011;38812;50.942;3.644;2023-04-28T14:34:24;1.17;;;1.05;;
52948;SDS011;38812;50.942;3.644;2023-04-28T14:36:50;2.88;;;0.70;;
52948;SDS011;38812;50.942;3.644;2023-04-28T14:39:15;1.02;;;0.90;;
52948;SDS011;38812;50.942;3.644;2023-04-28T14:41:41;3.53;;;1.00;;
52948;SDS011;38812;50.942;3.644;2023-04-28T14:44:06;1.95;;;1.10;;
52948;SDS011;38812;50.942;3.644;2023-04-28T14:46:32;0.73;;;0.73;;
52948;SDS011;38812;50.942;3.644;2023-04-28T14:48:58;0.95;;;0.90;;
52948;SDS011;38812;50.942;3.644;2023-04-28T14:51:23;3.35;;;1.05;;
52948;SDS011;38812;50.942;3.644;2023-04-28T14:53:50;1.00;;;0.70;;
52948;SDS011;38812;50.942;3.644;2023-04-28T14:56:15;4.65;;;1.25;;
52948;SDS011;38812;50.942;3.644;2023-04-28T14:58:41;1.85;;;0.90;;
52948;SDS011;38812;50.942;3.644;2023-04-28T15:01:06;1.73;;;1.00;;
52948;SDS011;38812;50.942;3.644;2023-04-28T15:03:32;1.67;;;0.90;;
52948;SDS011;38812;50.942;3.644;2023-04-28T15:05:57;3.80;;;1.20;;
52948;SDS011;38812;50.942;3.644;2023-04-28T15:08:23;1.73;;;0.80;;